Time;durP1;ratioP1;P1;durP2;ratioP2;P2;SDS_P1;SDS_P2;PMS_P1;PMS_P2;Temp;Humidity;BMP_temperature;BMP_pressure;BME280_temperature;BME280_humidity;BME280_pressure;Samples;Min_cycle;Max_cycle;Signal;HPM_P1;HPM_P2
2023/08/10 00:01:52;;;;;;;5.50;2.92;;;;;;;;;;5040348;28;20124;-73
2023/08/10 00:04:20;;;;;;;5.53;3.25;;;;;;;;;;5054639;28;20060;-72
2023/08/10 00:06:47;;;;;;;5.35;2.70;;;;;;;;;;5069528;28;20482;-72
2023/08/10 00:09:15;;;;;;;6.57;3.10;;;;;;;;;;5068270;28;20099;-72
2023/08/10 00:11:42;;;;;;;4.63;2.88;;;;;;;;;;5053764;28;20144;-72
2023/08/10 00:14:10;;;;;;;4.10;2.63;;;;;;;;;;5059184;28;20060;-72
2023/08/10 00:16:37;;;;;;;4.80;2.85;;;;;;;;;;5073812;28;20040;-72
2023/08/10 00:19:05;;;;;;;7.43;2.80;;;;;;;;;;5056069;28;20060;-72
2023/08/10 00:21:32;;;;;;;3.72;2.60;;;;;;;;;;5073671;28;20132;-72
2023/08/10 00:24:00;;;;;;;5.75;2.70;;;;;;;;;;5073643;28;20039;-72
2023/08/10 00:26:28;;;;;;;4.07;2.53;;;;;;;;;;5073540;28;20048;-72
2023/08/10 00:28:56;;;;;;;5.00;2.75;;;;;;;;;;5055667;28;20068;-72
2023/08/10 00:31:23;;;;;;;4.97;2.60;;;;;;;;;;5055465;28;20051;-71
2023/08/10 00:33:51;;;;;;;6.88;2.53;;;;;;;;;;5047293;28;20037;-72
2023/08/10 00:36:18;;;;;;;7.82;2.90;;;;;;;;;;5048401;28;20049;-72
2023/08/10 00:38:46;;;;;;;3.30;2.45;;;;;;;;;;5040288;28;20045;-72
2023/08/10 00:41:13;;;;;;;4.07;2.55;;;;;;;;;;5037780;28;20045;-72
2023/08/10 00:43:42;;;;;;;4.82;2.35;;;;;;;;;;5053521;28;20051;-71
2023/08/10 00:46:11;;;;;;;4.78;2.50;;;;;;;;;;5053405;28;20398;-72
2023/08/10 00:48:40;;;;;;;4.72;2.45;;;;;;;;;;5055943;28;20471;-71
2023/08/10 00:51:07;;;;;;;4.45;2.35;;;;;;;;;;5043847;28;20051;-71
2023/08/10 00:53:36;;;;;;;4.80;2.55;;;;;;;;;;5053098;28;20048;-72
2023/08/10 00:56:04;;;;;;;2.50;2.30;;;;;;;;;;5036584;28;20037;-73
2023/08/10 00:58:32;;;;;;;4.75;2.72;;;;;;;;;;5054821;28;20174;-72
2023/08/10 01:01:00;;;;;;;4.05;2.35;;;;;;;;;;5053016;28;20136;-73
2023/08/10 01:03:27;;;;;;;5.00;2.50;;;;;;;;;;5052945;28;20082;-72
2023/08/10 01:06:10;;;;;;;6.10;2.38;;;;;;;;;;5034953;28;20192;-72
2023/08/10 01:08:53;;;;;;;4.97;2.20;;;;;;;;;;5054046;28;20041;-71
2023/08/10 01:11:20;;;;;;;3.95;2.53;;;;;;;;;;5042583;28;20101;-71
2023/08/10 01:13:52;;;;;;;3.47;2.28;;;;;;;;;;5036956;28;20095;-71
2023/08/10 01:16:20;;;;;;;4.32;2.33;;;;;;;;;;5034852;28;20566;-71
2023/08/10 01:18:48;;;;;;;4.38;2.30;;;;;;;;;;5036636;28;20123;-71
2023/08/10 01:21:30;;;;;;;4.75;2.40;;;;;;;;;;5052809;28;20048;-71
2023/08/10 01:24:03;;;;;;;5.85;2.55;;;;;;;;;;5041075;28;20140;-71
2023/08/10 01:26:31;;;;;;;4.45;2.47;;;;;;;;;;5041362;28;20056;-72
2023/08/10 01:28:58;;;;;;;15.27;2.97;;;;;;;;;;5034420;28;20041;-72
2023/08/10 01:31:26;;;;;;;3.50;2.50;;;;;;;;;;5034195;28;20471;-71
2023/08/10 01:33:54;;;;;;;3.72;2.45;;;;;;;;;;5053043;28;20029;-71
2023/08/10 01:36:21;;;;;;;5.25;2.30;;;;;;;;;;5038597;28;20037;-71
2023/08/10 01:38:48;;;;;;;4.00;2.42;;;;;;;;;;5050213;28;20098;-71
2023/08/10 01:41:17;;;;;;;2.90;2.22;;;;;;;;;;5043787;28;20503;-71
2023/08/10 01:43:45;;;;;;;3.35;2.13;;;;;;;;;;5050926;28;20044;-71
2023/08/10 01:46:15;;;;;;;3.00;2.13;;;;;;;;;;5035431;28;20129;-71
2023/08/10 01:48:43;;;;;;;4.45;2.50;;;;;;;;;;5036373;28;20041;-71
2023/08/10 01:51:15;;;;;;;5.43;2.22;;;;;;;;;;5054161;28;20041;-71
2023/08/10 01:53:43;;;;;;;3.63;2.40;;;;;;;;;;5063019;28;20379;-72
2023/08/10 01:56:11;;;;;;;4.53;2.40;;;;;;;;;;5040499;28;20037;-70
2023/08/10 01:58:39;;;;;;;4.28;2.60;;;;;;;;;;5040456;28;20128;-71
2023/08/10 02:01:06;;;;;;;3.53;2.47;;;;;;;;;;5021962;28;20076;-73
2023/08/10 02:03:34;;;;;;;3.80;2.55;;;;;;;;;;5031137;28;20094;-73
2023/08/10 02:06:02;;;;;;;4.97;2.97;;;;;;;;;;5039749;28;20075;-72
2023/08/10 02:08:30;;;;;;;4.53;2.78;;;;;;;;;;5044102;28;20048;-72
2023/08/10 02:10:57;;;;;;;3.65;2.78;;;;;;;;;;5056918;28;20047;-72
2023/08/10 02:13:25;;;;;;;6.90;2.50;;;;;;;;;;5052124;28;20040;-72
2023/08/10 02:15:52;;;;;;;6.63;3.03;;;;;;;;;;5055445;28;20049;-71
2023/08/10 02:18:20;;;;;;;4.63;3.00;;;;;;;;;;5042183;28;20064;-73
2023/08/10 02:20:47;;;;;;;7.03;3.33;;;;;;;;;;5060061;28;20124;-72
2023/08/10 02:23:15;;;;;;;8.18;2.90;;;;;;;;;;5040696;28;20041;-73
2023/08/10 02:25:42;;;;;;;5.43;2.70;;;;;;;;;;5067502;28;20119;-73
2023/08/10 02:28:10;;;;;;;6.45;3.30;;;;;;;;;;5034938;28;20051;-72
2023/08/10 02:30:38;;;;;;;5.32;3.10;;;;;;;;;;5049795;28;20094;-72
2023/08/10 02:33:06;;;;;;;6.00;3.53;;;;;;;;;;5061959;28;20124;-73
2023/08/10 02:35:33;;;;;;;7.50;3.58;;;;;;;;;;5057767;28;20051;-72
2023/08/10 02:38:01;;;;;;;9.32;3.92;;;;;;;;;;5053469;28;20082;-71
2023/08/10 02:40:28;;;;;;;10.23;4.40;;;;;;;;;;5046365;28;20131;-72
2023/08/10 02:42:56;;;;;;;8.02;3.70;;;;;;;;;;5059521;28;20095;-72
2023/08/10 02:45:23;;;;;;;7.50;3.85;;;;;;;;;;5047751;28;20040;-72
2023/08/10 02:47:51;;;;;;;6.28;3.92;;;;;;;;;;5041677;28;20076;-72
2023/08/10 02:50:19;;;;;;;5.22;3.28;;;;;;;;;;5042257;28;20041;-72
2023/08/10 02:52:47;;;;;;;6.20;3.50;;;;;;;;;;5049709;28;20048;-71
2023/08/10 02:55:17;;;;;;;6.95;3.50;;;;;;;;;;5041232;28;20065;-71
2023/08/10 02:57:44;;;;;;;7.45;3.30;;;;;;;;;;5041705;28;20534;-72
2023/08/10 03:00:12;;;;;;;6.10;3.55;;;;;;;;;;5067224;28;20052;-71
2023/08/10 03:02:40;;;;;;;5.15;3.25;;;;;;;;;;5052725;28;20045;-71
2023/08/10 03:05:11;;;;;;;4.63;3.05;;;;;;;;;;5046369;28;20406;-71
2023/08/10 03:07:38;;;;;;;8.43;3.88;;;;;;;;;;5051579;28;20055;-71
2023/08/10 03:10:07;;;;;;;7.57;3.22;;;;;;;;;;5058940;28;20083;-70
2023/08/10 03:12:38;;;;;;;5.50;3.10;;;;;;;;;;5056182;28;20040;-71
2023/08/10 03:15:09;;;;;;;5.60;3.60;;;;;;;;;;5039106;28;20040;-72
2023/08/10 03:17:39;;;;;;;7.07;3.25;;;;;;;;;;5042466;28;20050;-71
2023/08/10 03:20:16;;;;;;;5.75;3.55;;;;;;;;;;5052745;28;20072;-72
2023/08/10 03:22:46;;;;;;;4.03;3.20;;;;;;;;;;5048690;28;20052;-71
2023/08/10 03:25:14;;;;;;;6.45;3.60;;;;;;;;;;5038094;28;20083;-72
2023/08/10 03:27:43;;;;;;;5.57;3.53;;;;;;;;;;5046837;28;20051;-71
2023/08/10 03:30:13;;;;;;;6.32;3.65;;;;;;;;;;5043759;28;20397;-71
2023/08/10 03:32:41;;;;;;;6.35;3.65;;;;;;;;;;5043813;28;20055;-71
2023/08/10 03:35:11;;;;;;;8.13;3.65;;;;;;;;;;5047541;28;20045;-71
2023/08/10 03:37:38;;;;;;;9.38;3.72;;;;;;;;;;5021112;28;20036;-71
2023/08/10 03:40:07;;;;;;;7.25;3.92;;;;;;;;;;5040734;28;20045;-71
2023/08/10 03:42:35;;;;;;;6.18;3.70;;;;;;;;;;5057898;28;20049;-71
2023/08/10 03:45:04;;;;;;;6.10;3.67;;;;;;;;;;5040543;28;20405;-71
2023/08/10 03:47:32;;;;;;;7.43;3.72;;;;;;;;;;5041482;28;20041;-71
2023/08/10 03:50:00;;;;;;;8.80;3.22;;;;;;;;;;5063970;28;20072;-70
2023/08/10 03:52:27;;;;;;;6.00;3.22;;;;;;;;;;5048906;28;20071;-71
2023/08/10 03:54:55;;;;;;;6.20;3.35;;;;;;;;;;5043185;28;20040;-72
2023/08/10 03:57:23;;;;;;;11.82;6.85;;;;;;;;;;5057497;28;20052;-71
2023/08/10 03:59:52;;;;;;;5.70;3.53;;;;;;;;;;5057919;28;20049;-72
2023/08/10 04:02:19;;;;;;;5.85;3.90;;;;;;;;;;5070331;28;20045;-72
2023/08/10 04:04:47;;;;;;;7.50;3.78;;;;;;;;;;5054884;28;20124;-72
2023/08/10 04:07:15;;;;;;;7.88;4.07;;;;;;;;;;5046412;28;20044;-72
2023/08/10 04:09:46;;;;;;;8.63;4.28;;;;;;;;;;5055785;28;20037;-72
2023/08/10 04:12:14;;;;;;;6.30;3.78;;;;;;;;;;5043602;28;20135;-72
2023/08/10 04:14:42;;;;;;;4.82;3.88;;;;;;;;;;5029235;28;20495;-72
2023/08/10 04:17:11;;;;;;;9.38;4.63;;;;;;;;;;5040409;28;20056;-72
2023/08/10 04:19:38;;;;;;;7.55;3.90;;;;;;;;;;5055970;28;20041;-72
2023/08/10 04:22:06;;;;;;;7.60;3.83;;;;;;;;;;5060774;28;20563;-72
2023/08/10 04:24:34;;;;;;;7.93;4.28;;;;;;;;;;5058986;28;20026;-71
2023/08/10 04:27:01;;;;;;;10.38;4.20;;;;;;;;;;5059572;28;20398;-72
2023/08/10 04:29:29;;;;;;;12.15;4.05;;;;;;;;;;5059709;28;20048;-72
2023/08/10 04:31:57;;;;;;;10.00;4.30;;;;;;;;;;5051869;28;20120;-72
2023/08/10 04:34:24;;;;;;;6.13;4.38;;;;;;;;;;5055457;28;20033;-72
2023/08/10 04:36:52;;;;;;;8.25;4.28;;;;;;;;;;5051845;28;20072;-72
2023/08/10 04:39:19;;;;;;;12.38;6.40;;;;;;;;;;5055719;28;20522;-72
2023/08/10 04:41:47;;;;;;;10.20;4.68;;;;;;;;;;5071146;28;20043;-72
2023/08/10 04:44:14;;;;;;;5.25;3.63;;;;;;;;;;5056196;28;20045;-71
2023/08/10 04:46:42;;;;;;;9.55;3.80;;;;;;;;;;5061768;28;20102;-72
2023/08/10 04:49:10;;;;;;;4.78;3.40;;;;;;;;;;5045718;28;20040;-72
2023/08/10 04:51:37;;;;;;;10.48;3.67;;;;;;;;;;5054294;28;20048;-72
2023/08/10 04:54:05;;;;;;;8.05;3.72;;;;;;;;;;5039039;28;20041;-72
2023/08/10 04:56:33;;;;;;;6.03;3.60;;;;;;;;;;5047822;28;20040;-72
2023/08/10 04:59:00;;;;;;;9.45;3.72;;;;;;;;;;5059508;28;20040;-72
2023/08/10 05:01:28;;;;;;;8.25;3.70;;;;;;;;;;5072889;28;20044;-71
2023/08/10 05:03:55;;;;;;;6.55;4.05;;;;;;;;;;5073282;28;20394;-71
2023/08/10 05:06:24;;;;;;;9.93;3.42;;;;;;;;;;5072996;28;20494;-71
2023/08/10 05:08:52;;;;;;;7.15;3.83;;;;;;;;;;5073248;28;20467;-71
2023/08/10 05:11:19;;;;;;;7.63;4.57;;;;;;;;;;5072949;28;20410;-71
2023/08/10 05:13:47;;;;;;;6.50;3.60;;;;;;;;;;5072927;28;20047;-71
2023/08/10 05:16:15;;;;;;;7.90;4.00;;;;;;;;;;5073050;28;20059;-71
2023/08/10 05:18:42;;;;;;;6.10;3.97;;;;;;;;;;5072859;28;20068;-70
2023/08/10 05:21:10;;;;;;;5.88;3.60;;;;;;;;;;5073074;28;20465;-71
2023/08/10 05:23:38;;;;;;;15.63;3.55;;;;;;;;;;5072759;28;20079;-71
2023/08/10 05:26:05;;;;;;;5.88;3.50;;;;;;;;;;5072946;28;20477;-71
2023/08/10 05:28:33;;;;;;;9.27;4.15;;;;;;;;;;5072616;28;20072;-71
2023/08/10 05:31:00;;;;;;;7.28;4.38;;;;;;;;;;5072746;28;20492;-72
2023/08/10 05:33:28;;;;;;;5.63;4.15;;;;;;;;;;5072642;28;20056;-71
2023/08/10 05:35:55;;;;;;;7.93;3.30;;;;;;;;;;5072811;28;20047;-71
2023/08/10 05:38:23;;;;;;;6.68;3.60;;;;;;;;;;5072643;28;20041;-71
2023/08/10 05:40:50;;;;;;;5.38;3.70;;;;;;;;;;5072715;28;20048;-71
2023/08/10 05:43:18;;;;;;;6.07;4.07;;;;;;;;;;5072894;28;20044;-71
2023/08/10 05:45:46;;;;;;;16.45;5.32;;;;;;;;;;5072611;28;20044;-71
2023/08/10 05:48:14;;;;;;;75.15;9.93;;;;;;;;;;5072643;28;20037;-71
2023/08/10 05:50:42;;;;;;;70.60;10.52;;;;;;;;;;5072502;28;20407;-71
2023/08/10 05:53:09;;;;;;;42.78;8.57;;;;;;;;;;5072435;28;20044;-71
2023/08/10 05:55:36;;;;;;;43.00;6.85;;;;;;;;;;5072515;28;20041;-71
2023/08/10 05:58:04;;;;;;;32.88;6.63;;;;;;;;;;5072494;28;20048;-71
2023/08/10 06:00:32;;;;;;;7.95;4.30;;;;;;;;;;5072355;28;20083;-71
2023/08/10 06:03:00;;;;;;;15.80;4.70;;;;;;;;;;5072398;28;20048;-71
2023/08/10 06:05:27;;;;;;;9.90;3.80;;;;;;;;;;5072659;28;20065;-73
2023/08/10 06:07:55;;;;;;;6.25;3.55;;;;;;;;;;5072177;28;20072;-73
2023/08/10 06:10:23;;;;;;;7.30;3.67;;;;;;;;;;5072507;28;20049;-73
2023/08/10 06:12:50;;;;;;;6.65;4.28;;;;;;;;;;5072353;28;20087;-71
2023/08/10 06:15:18;;;;;;;8.75;3.72;;;;;;;;;;5054675;28;20433;-71
2023/08/10 06:17:46;;;;;;;6.28;3.78;;;;;;;;;;5054690;28;20059;-72
2023/08/10 06:20:16;;;;;;;5.75;3.30;;;;;;;;;;5072090;28;20076;-71
2023/08/10 06:22:44;;;;;;;5.22;3.10;;;;;;;;;;5072237;28;20036;-72
2023/08/10 06:25:12;;;;;;;6.70;3.70;;;;;;;;;;5072238;28;20064;-71
2023/08/10 06:27:40;;;;;;;7.63;3.22;;;;;;;;;;5072095;28;20036;-71
2023/08/10 06:30:08;;;;;;;6.32;3.08;;;;;;;;;;5072063;28;20041;-71
2023/08/10 06:32:36;;;;;;;5.47;2.95;;;;;;;;;;5071989;28;20048;-72
2023/08/10 06:35:04;;;;;;;5.47;3.30;;;;;;;;;;5072030;28;20490;-72
2023/08/10 06:37:32;;;;;;;4.13;3.15;;;;;;;;;;5054369;28;20044;-72
2023/08/10 06:40:01;;;;;;;8.30;3.00;;;;;;;;;;5072020;28;20123;-72
2023/08/10 06:42:28;;;;;;;5.45;3.10;;;;;;;;;;5075251;28;20041;-72
2023/08/10 06:45:00;;;;;;;5.80;3.05;;;;;;;;;;5057844;28;20101;-72
2023/08/10 06:47:28;;;;;;;5.47;3.00;;;;;;;;;;5075689;28;20040;-72
2023/08/10 06:49:56;;;;;;;5.18;3.00;;;;;;;;;;5075620;28;20057;-72
2023/08/10 06:52:24;;;;;;;5.55;3.08;;;;;;;;;;5075238;28;20040;-72
2023/08/10 06:54:52;;;;;;;7.95;2.90;;;;;;;;;;5075604;28;20051;-72
2023/08/10 06:57:20;;;;;;;4.00;2.88;;;;;;;;;;5075502;28;20044;-72
2023/08/10 06:59:48;;;;;;;3.60;2.50;;;;;;;;;;5075401;28;20048;-72
2023/08/10 07:02:19;;;;;;;4.60;2.42;;;;;;;;;;5075379;28;20090;-73
2023/08/10 07:04:46;;;;;;;4.50;2.63;;;;;;;;;;5075411;28;20043;-72
2023/08/10 07:07:14;;;;;;;4.53;3.20;;;;;;;;;;5075432;28;20427;-72
2023/08/10 07:09:42;;;;;;;5.65;2.10;;;;;;;;;;5075221;28;20041;-71
2023/08/10 07:12:09;;;;;;;4.18;2.63;;;;;;;;;;5075552;28;20432;-71
2023/08/10 07:14:37;;;;;;;3.85;2.50;;;;;;;;;;5075415;28;20367;-72
2023/08/10 07:17:04;;;;;;;5.57;2.58;;;;;;;;;;5075144;28;20398;-72
2023/08/10 07:19:32;;;;;;;5.07;2.53;;;;;;;;;;5075190;28;20040;-72
2023/08/10 07:22:00;;;;;;;4.28;2.20;;;;;;;;;;5075106;28;20486;-72
2023/08/10 07:24:27;;;;;;;4.20;2.05;;;;;;;;;;5075116;28;20436;-72
2023/08/10 07:26:56;;;;;;;5.30;2.50;;;;;;;;;;5075235;28;20120;-72
2023/08/10 07:29:24;;;;;;;5.53;2.70;;;;;;;;;;5057246;28;20119;-72
2023/08/10 07:31:52;;;;;;;4.05;2.35;;;;;;;;;;5074781;28;20048;-72
2023/08/10 07:34:19;;;;;;;6.53;2.38;;;;;;;;;;5075043;28;20048;-72
2023/08/10 07:36:47;;;;;;;3.22;2.50;;;;;;;;;;5074793;28;20060;-71
2023/08/10 07:39:14;;;;;;;2.97;2.10;;;;;;;;;;5056989;28;20036;-72
2023/08/10 07:41:42;;;;;;;7.88;5.82;;;;;;;;;;5074704;28;20044;-72
2023/08/10 07:44:09;;;;;;;5.10;3.20;;;;;;;;;;5074662;28;20044;-72
2023/08/10 07:46:37;;;;;;;5.85;3.25;;;;;;;;;;5074596;28;20045;-71
2023/08/10 07:49:05;;;;;;;3.03;2.35;;;;;;;;;;5074577;28;20414;-72
2023/08/10 07:51:32;;;;;;;3.38;2.17;;;;;;;;;;5074315;28;20052;-72
2023/08/10 07:53:59;;;;;;;4.55;2.45;;;;;;;;;;5073275;28;20544;-72
2023/08/10 07:56:27;;;;;;;6.40;2.80;;;;;;;;;;5074472;28;20044;-72
2023/08/10 07:58:54;;;;;;;3.20;2.25;;;;;;;;;;5074157;28;20082;-72
2023/08/10 08:01:22;;;;;;;3.42;2.72;;;;;;;;;;5056411;28;20435;-72
2023/08/10 08:03:50;;;;;;;4.00;2.45;;;;;;;;;;5074229;28;20127;-72
2023/08/10 08:06:18;;;;;;;3.38;2.30;;;;;;;;;;5074356;28;20135;-72
2023/08/10 08:08:45;;;;;;;3.00;2.33;;;;;;;;;;5074107;28;20048;-72
2023/08/10 08:11:13;;;;;;;4.50;2.40;;;;;;;;;;5074217;28;20032;-72
2023/08/10 08:13:40;;;;;;;3.60;2.70;;;;;;;;;;5074039;28;20068;-71
2023/08/10 08:16:08;;;;;;;3.88;2.30;;;;;;;;;;5073835;28;20043;-71
2023/08/10 08:18:48;;;;;;;4.82;3.10;;;;;;;;;;5074034;28;20075;-72
2023/08/10 08:21:17;;;;;;;4.15;2.63;;;;;;;;;;5073848;28;20402;-72
2023/08/10 08:23:45;;;;;;;4.38;2.60;;;;;;;;;;5056202;28;20076;-72
2023/08/10 08:26:14;;;;;;;4.28;3.00;;;;;;;;;;5073825;28;20048;-71
2023/08/10 08:28:43;;;;;;;4.07;2.70;;;;;;;;;;5073848;28;20486;-71
2023/08/10 08:31:11;;;;;;;3.10;2.80;;;;;;;;;;5073659;28;20052;-71
2023/08/10 08:33:39;;;;;;;3.58;3.13;;;;;;;;;;5073604;28;20051;-72
2023/08/10 08:36:07;;;;;;;5.28;3.08;;;;;;;;;;5073878;28;20049;-71
2023/08/10 08:38:35;;;;;;;3.67;3.00;;;;;;;;;;5073511;28;20044;-72
2023/08/10 08:41:06;;;;;;;3.28;2.80;;;;;;;;;;5055959;28;20040;-72
2023/08/10 08:43:34;;;;;;;2.80;2.53;;;;;;;;;;5073589;28;20040;-72
2023/08/10 08:46:02;;;;;;;5.28;2.83;;;;;;;;;;5073409;28;20066;-72
2023/08/10 08:48:30;;;;;;;3.45;2.70;;;;;;;;;;5073419;28;20052;-71
2023/08/10 08:50:58;;;;;;;5.65;3.20;;;;;;;;;;5073929;28;20390;-73
2023/08/10 08:53:26;;;;;;;3.13;2.50;;;;;;;;;;5073771;28;20040;-72
2023/08/10 08:55:53;;;;;;;3.20;2.60;;;;;;;;;;5073700;28;20032;-71
2023/08/10 08:58:21;;;;;;;3.45;2.88;;;;;;;;;;5073224;28;20118;-74
2023/08/10 09:00:49;;;;;;;3.83;2.55;;;;;;;;;;5073196;28;20044;-74
2023/08/10 09:03:17;;;;;;;5.53;2.92;;;;;;;;;;5055238;28;20044;-71
2023/08/10 09:05:46;;;;;;;3.95;2.95;;;;;;;;;;5073044;28;20037;-73
2023/08/10 09:08:14;;;;;;;8.20;3.22;;;;;;;;;;5073148;28;20074;-73
2023/08/10 09:10:44;;;;;;;5.07;3.58;;;;;;;;;;5073005;28;20051;-72
2023/08/10 09:13:12;;;;;;;5.82;3.30;;;;;;;;;;5072849;28;20087;-72
2023/08/10 09:15:40;;;;;;;5.50;3.20;;;;;;;;;;5073013;28;20040;-72
2023/08/10 09:18:07;;;;;;;5.68;3.22;;;;;;;;;;5072813;28;20032;-71
2023/08/10 09:20:35;;;;;;;3.47;3.00;;;;;;;;;;5073201;28;20459;-72
2023/08/10 09:23:03;;;;;;;6.53;3.00;;;;;;;;;;5072788;28;20119;-72
2023/08/10 09:25:38;;;;;;;4.53;3.13;;;;;;;;;;5072665;28;20120;-72
2023/08/10 09:28:11;;;;;;;6.57;3.33;;;;;;;;;;5072696;28;20044;-72
2023/08/10 09:30:41;;;;;;;4.65;2.90;;;;;;;;;;5072657;28;20040;-72
2023/08/10 09:33:09;;;;;;;7.53;3.50;;;;;;;;;;5072870;28;20048;-72
2023/08/10 09:35:37;;;;;;;4.95;3.05;;;;;;;;;;5072584;28;20102;-73
2023/08/10 09:38:06;;;;;;;4.22;3.20;;;;;;;;;;5072500;28;20040;-72
2023/08/10 09:40:33;;;;;;;8.98;3.70;;;;;;;;;;5072544;28;20066;-72
2023/08/10 09:43:08;;;;;;;12.20;8.77;;;;;;;;;;5072572;28;20040;-72
2023/08/10 09:45:38;;;;;;;6.47;3.38;;;;;;;;;;5072496;28;20442;-72
2023/08/10 09:48:10;;;;;;;5.80;3.80;;;;;;;;;;5072416;28;20044;-72
2023/08/10 09:50:37;;;;;;;5.28;3.17;;;;;;;;;;5072488;28;20119;-72
2023/08/10 09:53:05;;;;;;;7.32;3.50;;;;;;;;;;5072384;28;20127;-72
2023/08/10 09:55:33;;;;;;;5.03;3.20;;;;;;;;;;5072287;28;20040;-72
2023/08/10 09:58:00;;;;;;;3.50;3.20;;;;;;;;;;5072409;28;20043;-72
2023/08/10 10:00:29;;;;;;;6.82;3.30;;;;;;;;;;5054357;28;20410;-72
2023/08/10 10:02:57;;;;;;;4.45;3.20;;;;;;;;;;5072403;28;20393;-72
2023/08/10 10:05:26;;;;;;;4.80;3.33;;;;;;;;;;5054755;28;20108;-72
2023/08/10 10:07:57;;;;;;;4.18;3.10;;;;;;;;;;5072233;28;20110;-72
2023/08/10 10:10:24;;;;;;;5.53;3.25;;;;;;;;;;5054282;28;20032;-72
2023/08/10 10:12:52;;;;;;;5.03;3.08;;;;;;;;;;5072102;28;20043;-72
2023/08/10 10:15:20;;;;;;;5.22;3.17;;;;;;;;;;5071895;28;20048;-72
2023/08/10 10:17:52;;;;;;;6.03;5.07;;;;;;;;;;5075512;28;20479;-72
2023/08/10 10:20:20;;;;;;;5.30;3.30;;;;;;;;;;5076019;28;20078;-72
2023/08/10 10:22:48;;;;;;;3.70;3.05;;;;;;;;;;5076014;28;20037;-72
2023/08/10 10:25:15;;;;;;;4.93;2.80;;;;;;;;;;5076160;28;20044;-72
2023/08/10 10:27:47;;;;;;;5.15;2.92;;;;;;;;;;5057964;28;20047;-73
2023/08/10 10:30:16;;;;;;;3.90;3.08;;;;;;;;;;5076274;28;20048;-72
2023/08/10 10:32:48;;;;;;;3.45;3.15;;;;;;;;;;5075755;28;20032;-72
2023/08/10 10:35:16;;;;;;;6.20;3.25;;;;;;;;;;5075886;28;20050;-72
2023/08/10 10:37:53;;;;;;;4.07;3.20;;;;;;;;;;5058201;28;20047;-72
2023/08/10 10:40:23;;;;;;;7.50;3.05;;;;;;;;;;5075668;28;20064;-72
2023/08/10 10:43:02;;;;;;;4.78;3.22;;;;;;;;;;5075738;28;20478;-70
2023/08/10 10:45:40;;;;;;;5.63;3.38;;;;;;;;;;5075642;28;20040;-71
2023/08/10 10:48:10;;;;;;;3.97;3.00;;;;;;;;;;5075872;28;20051;-71
2023/08/10 10:50:37;;;;;;;5.05;3.22;;;;;;;;;;5075602;28;20044;-71
2023/08/10 10:53:06;;;;;;;3.80;3.10;;;;;;;;;;5075342;28;20119;-71
2023/08/10 10:55:36;;;;;;;5.93;2.95;;;;;;;;;;5075538;28;20056;-71
2023/08/10 10:58:05;;;;;;;3.63;3.08;;;;;;;;;;5074792;28;20047;-71
2023/08/10 11:00:35;;;;;;;5.50;2.70;;;;;;;;;;5074790;28;20083;-71
2023/08/10 11:03:04;;;;;;;4.50;2.97;;;;;;;;;;5074708;28;20378;-71
2023/08/10 11:05:32;;;;;;;5.43;3.10;;;;;;;;;;5075235;28;20119;-71
2023/08/10 11:08:05;;;;;;;4.43;2.60;;;;;;;;;;5074177;28;20448;-72
2023/08/10 11:10:37;;;;;;;4.90;3.03;;;;;;;;;;5075280;28;20041;-72
2023/08/10 11:13:05;;;;;;;6.45;3.35;;;;;;;;;;5075026;28;20314;-72
2023/08/10 11:15:33;;;;;;;3.63;2.90;;;;;;;;;;5075090;28;20044;-71
2023/08/10 11:18:03;;;;;;;3.42;2.60;;;;;;;;;;5075404;28;20044;-72
2023/08/10 11:20:33;;;;;;;4.32;3.30;;;;;;;;;;5074998;28;20051;-71
2023/08/10 11:23:04;;;;;;;6.78;3.63;;;;;;;;;;5066950;28;20933;-71
2023/08/10 11:25:32;;;;;;;5.95;3.85;;;;;;;;;;5057660;28;20037;-71
2023/08/10 11:28:00;;;;;;;9.32;7.13;;;;;;;;;;5052146;28;20072;-72
2023/08/10 11:30:27;;;;;;;4.25;3.28;;;;;;;;;;5064990;28;20064;-72
2023/08/10 11:32:55;;;;;;;12.43;8.43;;;;;;;;;;5049443;28;20049;-72
2023/08/10 11:35:26;;;;;;;10.25;5.53;;;;;;;;;;5041350;28;20048;-71
2023/08/10 11:37:54;;;;;;;13.43;10.25;;;;;;;;;;5073205;28;20520;-73
2023/08/10 11:40:22;;;;;;;5.47;3.92;;;;;;;;;;5073885;28;20048;-73
2023/08/10 11:42:52;;;;;;;5.32;3.38;;;;;;;;;;5074202;28;20036;-73
2023/08/10 11:45:20;;;;;;;5.47;3.00;;;;;;;;;;5074090;28;20111;-73
2023/08/10 11:47:58;;;;;;;7.85;4.60;;;;;;;;;;5074081;28;20044;-73
2023/08/10 11:50:29;;;;;;;5.25;3.20;;;;;;;;;;5072301;28;20041;-72
2023/08/10 11:52:58;;;;;;;10.35;8.23;;;;;;;;;;5073946;28;21111;-73
2023/08/10 11:55:27;;;;;;;4.47;3.25;;;;;;;;;;5073935;28;20075;-71
2023/08/10 11:57:57;;;;;;;2.90;2.58;;;;;;;;;;5073895;28;20508;-70
2023/08/10 12:00:28;;;;;;;2.83;2.53;;;;;;;;;;5071790;28;20082;-70
2023/08/10 12:02:57;;;;;;;2.85;2.28;;;;;;;;;;5074121;28;20043;-71
2023/08/10 12:05:31;;;;;;;4.43;2.40;;;;;;;;;;5073928;28;20051;-71
2023/08/10 12:07:59;;;;;;;4.10;2.38;;;;;;;;;;5074021;28;20052;-70
2023/08/10 12:10:26;;;;;;;4.75;2.65;;;;;;;;;;5073945;28;20033;-70
2023/08/10 12:13:04;;;;;;;4.72;2.50;;;;;;;;;;5073913;28;20045;-70
2023/08/10 12:15:32;;;;;;;5.95;3.20;;;;;;;;;;5073966;28;20044;-70
2023/08/10 12:18:00;;;;;;;5.00;2.50;;;;;;;;;;5056160;28;20375;-71
2023/08/10 12:20:28;;;;;;;4.93;2.45;;;;;;;;;;5073791;28;20048;-70
2023/08/10 12:22:55;;;;;;;4.22;2.67;;;;;;;;;;5073719;28;20036;-73
2023/08/10 12:25:23;;;;;;;3.83;2.58;;;;;;;;;;5073971;28;20146;-72
2023/08/10 12:27:50;;;;;;;3.40;2.10;;;;;;;;;;5073726;28;20502;-72
2023/08/10 12:30:18;;;;;;;5.10;2.30;;;;;;;;;;5073503;28;20078;-71
2023/08/10 12:32:46;;;;;;;3.92;2.50;;;;;;;;;;5072864;28;20036;-73
2023/08/10 12:35:14;;;;;;;5.25;2.35;;;;;;;;;;5072270;28;20470;-73
2023/08/10 12:37:41;;;;;;;5.07;2.35;;;;;;;;;;5055686;28;20044;-72
2023/08/10 12:40:10;;;;;;;2.78;2.10;;;;;;;;;;5072898;28;20041;-72
2023/08/10 12:42:39;;;;;;;3.80;2.38;;;;;;;;;;5073303;28;20747;-72
2023/08/10 12:45:11;;;;;;;4.63;2.65;;;;;;;;;;5073187;28;20478;-72
2023/08/10 12:47:39;;;;;;;5.57;2.38;;;;;;;;;;5073118;28;20437;-72
2023/08/10 12:50:07;;;;;;;3.53;2.45;;;;;;;;;;5073154;28;20047;-72
2023/08/10 12:52:35;;;;;;;3.03;2.17;;;;;;;;;;5073100;28;20040;-73
2023/08/10 12:55:02;;;;;;;5.05;2.78;;;;;;;;;;5072991;28;20067;-72
2023/08/10 12:57:30;;;;;;;38.15;27.80;;;;;;;;;;5055282;28;20048;-73
2023/08/10 12:59:59;;;;;;;6.60;3.17;;;;;;;;;;5072889;28;20106;-73
2023/08/10 13:02:27;;;;;;;8.05;2.92;;;;;;;;;;5072962;28;20074;-73
2023/08/10 13:05:00;;;;;;;5.68;2.45;;;;;;;;;;5073286;28;20367;-73
2023/08/10 13:07:28;;;;;;;6.72;2.70;;;;;;;;;;5073154;28;20044;-73
2023/08/10 13:09:57;;;;;;;4.75;2.78;;;;;;;;;;5072800;28;20080;-73
2023/08/10 13:12:24;;;;;;;4.15;2.50;;;;;;;;;;5072835;28;20033;-73
2023/08/10 13:14:52;;;;;;;5.75;2.75;;;;;;;;;;5072135;28;20037;-73
2023/08/10 13:17:19;;;;;;;5.10;2.30;;;;;;;;;;5054601;28;20044;-73
2023/08/10 13:19:47;;;;;;;5.03;2.47;;;;;;;;;;5072417;28;20049;-73
2023/08/10 13:22:14;;;;;;;3.97;2.63;;;;;;;;;;5072781;28;20041;-73
2023/08/10 13:24:42;;;;;;;4.45;2.47;;;;;;;;;;5072674;28;20036;-74
2023/08/10 13:27:09;;;;;;;5.20;2.80;;;;;;;;;;5072608;28;20044;-72
2023/08/10 13:29:37;;;;;;;6.25;2.88;;;;;;;;;;5072731;28;20052;-72
2023/08/10 13:32:05;;;;;;;6.10;2.90;;;;;;;;;;5072420;28;20049;-72
2023/08/10 13:34:33;;;;;;;3.10;2.55;;;;;;;;;;5072337;28;20501;-73
2023/08/10 13:37:01;;;;;;;5.05;2.85;;;;;;;;;;5072813;28;20032;-73
2023/08/10 13:39:28;;;;;;;7.68;3.00;;;;;;;;;;5072476;28;20056;-73
2023/08/10 13:41:56;;;;;;;9.10;3.20;;;;;;;;;;5072528;28;20490;-73
2023/08/10 13:44:23;;;;;;;7.53;2.95;;;;;;;;;;5071590;28;20397;-72
2023/08/10 13:46:51;;;;;;;13.88;7.20;;;;;;;;;;5054603;28;20065;-73
2023/08/10 13:49:18;;;;;;;8.93;3.40;;;;;;;;;;5071664;28;20037;-72
2023/08/10 13:51:46;;;;;;;6.82;3.20;;;;;;;;;;5072260;28;20037;-73
2023/08/10 13:54:13;;;;;;;7.25;3.38;;;;;;;;;;5072175;28;20052;-77
2023/08/10 13:56:55;;;;;;;22.00;3.75;;;;;;;;;;5072307;28;20538;-78
2023/08/10 13:59:23;;;;;;;13.23;3.70;;;;;;;;;;5072456;28;20513;-76
2023/08/10 14:01:51;;;;;;;12.52;3.55;;;;;;;;;;5072549;28;20037;-78
2023/08/10 14:04:19;;;;;;;6.15;3.85;;;;;;;;;;5072449;28;20044;-80
2023/08/10 14:06:46;;;;;;;13.75;3.63;;;;;;;;;;5072354;28;20033;-79
2023/08/10 14:09:16;;;;;;;13.13;5.13;;;;;;;;;;5072335;28;20036;-78
2023/08/10 14:11:46;;;;;;;15.20;5.63;;;;;;;;;;5072220;28;20048;-73
2023/08/10 14:14:16;;;;;;;10.98;6.15;;;;;;;;;;5072402;28;20043;-73
2023/08/10 14:16:44;;;;;;;8.77;5.43;;;;;;;;;;5070948;28;20044;-74
2023/08/10 14:19:12;;;;;;;11.65;6.05;;;;;;;;;;5072147;28;20040;-74
2023/08/10 14:21:40;;;;;;;10.60;5.80;;;;;;;;;;5072186;28;20509;-75
2023/08/10 14:24:07;;;;;;;8.70;5.78;;;;;;;;;;5072089;28;20049;-76
2023/08/10 14:26:36;;;;;;;12.65;6.05;;;;;;;;;;5071995;28;20444;-77
2023/08/10 14:29:03;;;;;;;10.20;5.80;;;;;;;;;;5072090;28;20068;-74
2023/08/10 14:31:31;;;;;;;10.52;6.57;;;;;;;;;;5071995;28;20040;-73
2023/08/10 14:33:59;;;;;;;9.32;5.60;;;;;;;;;;5071744;28;20085;-73
2023/08/10 14:36:26;;;;;;;8.13;6.30;;;;;;;;;;5060415;28;20120;-73
2023/08/10 14:38:54;;;;;;;8.60;5.38;;;;;;;;;;5059381;28;20055;-72
2023/08/10 14:41:21;;;;;;;7.85;5.40;;;;;;;;;;5064576;28;20039;-73
2023/08/10 14:43:49;;;;;;;8.57;5.80;;;;;;;;;;5067767;28;20047;-73
2023/08/10 14:46:17;;;;;;;8.73;5.40;;;;;;;;;;5055177;28;20913;-73
2023/08/10 14:48:45;;;;;;;6.28;4.97;;;;;;;;;;5067211;28;20033;-72